createdAt,value
2019-05-15T00:04:53.900Z,72.31
2019-05-15T00:09:58.605Z,72.32
2019-05-15T00:15:02.117Z,72.75
2019-05-15T00:20:05.848Z,72.74
2019-05-15T00:25:09.559Z,72.30
2019-05-15T00:30:12.979Z,72.25
2019-05-15T00:35:18.232Z,71.90
2019-05-15T00:40:21.229Z,71.87
2019-05-15T00:45:24.517Z,71.60
2019-05-15T00:50:28.737Z,71.23
2019-05-15T00:55:32.103Z,71.50
2019-05-15T01:00:43.553Z,71.05
2019-05-15T01:05:48.044Z,71.07
2019-05-15T01:10:51.516Z,71.52
2019-05-15T01:15:54.796Z,70.71
2019-05-15T01:20:58.702Z,71.95
2019-05-15T01:26:02.166Z,71.42
2019-05-15T01:31:05.450Z,69.34
2019-05-15T01:36:08.786Z,69.00
2019-05-15T01:41:12.128Z,69.17
2019-05-15T01:46:15.408Z,70.55
2019-05-15T01:51:18.698Z,70.09
2019-05-15T01:56:21.998Z,69.38
2019-05-15T02:01:25.332Z,69.48
2019-05-15T02:06:28.688Z,69.63
2019-05-15T02:11:31.927Z,69.93
2019-05-15T02:16:35.228Z,70.07
2019-05-15T02:21:38.514Z,69.46
2019-05-15T02:26:41.796Z,71.11
2019-05-15T02:31:45.078Z,70.99
2019-05-15T02:36:49.297Z,69.89
2019-05-15T02:41:52.939Z,69.34
2019-05-15T02:46:58.821Z,69.34
2019-05-15T02:52:01.235Z,69.19
2019-05-15T02:57:04.521Z,69.05
2019-05-15T03:02:10.177Z,69.76
2019-05-15T03:07:12.818Z,69.92
2019-05-15T03:12:19.387Z,69.92
2019-05-15T03:17:22.316Z,69.38
2019-05-15T03:22:25.617Z,68.71
2019-05-15T03:27:30.429Z,68.50
2019-05-15T03:32:42.767Z,68.72
2019-05-15T03:37:39.964Z,68.67
2019-05-15T03:42:43.448Z,68.67
2019-05-15T03:47:49.190Z,68.84
2019-05-15T03:52:52.309Z,68.93
2019-05-15T03:58:02.366Z,67.99
2019-05-15T04:03:05.652Z,68.12
2019-05-15T04:08:10.851Z,67.81
2019-05-15T04:13:13.941Z,67.99
2019-05-15T04:18:19.848Z,68.06
2019-05-15T04:23:23.184Z,68.03
2019-05-15T04:28:29.308Z,67.87
2019-05-15T04:33:32.426Z,67.73
2019-05-15T04:38:39.012Z,67.45
2019-05-15T04:43:45.148Z,66.96
2019-05-15T04:48:46.076Z,66.42
2019-05-15T04:53:50.410Z,66.14
2019-05-15T04:58:53.925Z,65.52
2019-05-15T05:03:58.934Z,65.64
2019-05-15T05:09:02.589Z,65.08
2019-05-15T05:14:08.400Z,64.45
2019-05-15T05:19:10.942Z,64.34
2019-05-15T05:24:14.238Z,63.35
2019-05-15T05:29:17.849Z,63.29
2019-05-15T05:34:21.202Z,62.73
2019-05-15T05:39:24.468Z,62.85
2019-05-15T05:44:29.112Z,61.37
2019-05-15T05:49:32.629Z,61.74
2019-05-15T05:54:38.112Z,62.08
2019-05-15T05:59:40.972Z,60.78
2019-05-15T06:04:44.324Z,61.15
2019-05-15T06:09:48.648Z,59.96
2019-05-15T06:14:52.142Z,59.12
2019-05-15T06:19:55.508Z,59.18
2019-05-15T06:24:58.744Z,59.28
2019-05-15T06:30:02.031Z,59.04
2019-05-15T06:35:08.727Z,59.21
2019-05-15T06:40:11.656Z,59.34
2019-05-15T06:45:15.123Z,58.78
2019-05-15T06:50:38.048Z,58.48
2019-05-15T06:55:40.740Z,58.09
2019-05-15T07:00:44.071Z,57.78
2019-05-15T07:05:50.308Z,57.64
2019-05-15T07:10:53.325Z,57.21
2019-05-15T07:15:58.524Z,56.76
2019-05-15T07:21:01.628Z,56.28
2019-05-15T07:26:04.921Z,56.45
2019-05-15T07:31:11.653Z,55.63
2019-05-15T07:36:13.268Z,55.59
2019-05-15T07:41:18.538Z,55.12
2019-05-15T07:46:21.576Z,55.26
2019-05-15T07:51:24.885Z,53.81
2019-05-15T07:56:28.963Z,53.97
2019-05-15T08:01:32.334Z,53.86
2019-05-15T08:06:38.596Z,53.26
2019-05-15T08:11:40.648Z,53.86
2019-05-15T08:16:43.945Z,53.69
2019-05-15T08:21:51.621Z,53.54
2019-05-15T08:26:52.267Z,52.85
2019-05-15T08:31:55.585Z,53.30
2019-05-15T08:36:59.168Z,52.74
2019-05-15T08:42:02.522Z,52.49
2019-05-15T08:47:07.727Z,52.21
2019-05-15T08:52:11.145Z,52.27
2019-05-15T08:57:14.794Z,51.46
2019-05-15T09:02:18.647Z,51.60
2019-05-15T09:07:22.896Z,51.40
2019-05-15T09:12:26.242Z,51.22
2019-05-15T09:17:29.539Z,51.50
2019-05-15T09:22:32.931Z,50.91
2019-05-15T09:27:38.333Z,50.80
2019-05-15T09:32:41.536Z,51.06
2019-05-15T09:37:44.827Z,51.02
2019-05-15T09:42:48.842Z,51.69
2019-05-15T09:47:52.116Z,51.33
2019-05-15T09:52:55.421Z,51.19
2019-05-15T09:57:59.137Z,50.87
2019-05-15T10:03:02.472Z,51.33
2019-05-15T10:08:08.456Z,51.31
2019-05-15T10:13:10.930Z,51.01
2019-05-15T10:18:14.231Z,50.67
2019-05-15T10:23:19.661Z,51.05
2019-05-15T10:28:22.542Z,51.04
2019-05-15T10:33:25.845Z,50.81
2019-05-15T10:38:29.117Z,50.25
2019-05-15T10:43:32.512Z,50.56
2019-05-15T10:48:38.395Z,50.73
2019-05-15T10:53:40.867Z,50.76
2019-05-15T10:58:44.212Z,50.68
2019-05-15T11:03:49.524Z,50.32
2019-05-15T11:08:52.631Z,49.41
2019-05-15T11:14:00.235Z,49.46
2019-05-15T11:19:00.935Z,49.49
2019-05-15T11:24:04.227Z,49.62
2019-05-15T11:29:09.708Z,48.44
2019-05-15T11:34:12.543Z,48.44
2019-05-15T11:39:18.172Z,48.05
2019-05-15T11:44:20.841Z,47.84
2019-05-15T11:49:24.145Z,47.17
2019-05-15T11:54:28.265Z,46.80
2019-05-15T11:59:31.742Z,46.81
2019-05-15T12:04:35.023Z,45.55
2019-05-15T12:09:38.856Z,46.15
2019-05-15T12:14:42.178Z,45.20
2019-05-15T12:19:54.850Z,45.35
2019-05-15T12:24:50.484Z,45.51
2019-05-15T12:29:53.765Z,45.45
2019-05-15T12:35:00.011Z,44.13
2019-05-15T13:00:24.829Z,45.64
2019-05-15T13:05:29.086Z,45.55
2019-05-15T13:10:33.139Z,45.83
2019-05-15T13:15:40.435Z,46.42
2019-05-15T13:20:41.437Z,46.50
2019-05-15T13:25:44.733Z,46.46
2019-05-15T13:30:48.946Z,46.53
2019-05-15T13:35:52.501Z,46.69
2019-05-15T13:40:55.795Z,46.67
2019-05-15T13:45:59.664Z,47.28
2019-05-15T13:51:02.962Z,47.84
2019-05-15T13:56:06.317Z,48.94
2019-05-15T14:01:09.629Z,48.94
2019-05-15T14:06:12.896Z,48.79
2019-05-15T14:11:21.192Z,49.12
2019-05-15T14:16:21.201Z,49.53
2019-05-15T14:21:24.483Z,49.84
2019-05-15T14:26:27.792Z,50.28
2019-05-15T14:31:31.085Z,50.90
2019-05-15T14:36:34.385Z,51.25
2019-05-15T14:41:38.235Z,51.84
2019-05-15T14:46:41.655Z,51.97
2019-05-15T14:51:44.950Z,52.16
2019-05-15T14:56:48.726Z,52.09
2019-05-15T15:01:52.022Z,52.19
2019-05-15T15:06:57.624Z,52.58
2019-05-15T15:12:00.502Z,52.76
2019-05-15T15:17:03.798Z,53.09
2019-05-15T15:22:08.739Z,53.10
2019-05-15T15:27:12.178Z,53.63
2019-05-15T15:32:15.471Z,54.21
2019-05-15T15:37:18.760Z,54.42
2019-05-15T15:42:22.041Z,54.45
2019-05-15T15:47:25.344Z,54.70
2019-05-15T15:52:29.090Z,54.77
2019-05-15T15:57:32.495Z,55.41
2019-05-15T16:02:35.860Z,55.58
2019-05-15T16:07:39.261Z,56.17
2019-05-15T16:12:42.583Z,56.18
2019-05-15T16:17:45.877Z,56.35
2019-05-15T16:22:49.946Z,56.46
2019-05-15T16:27:53.502Z,56.75
2019-05-15T16:32:58.479Z,56.73
2019-05-15T16:38:01.956Z,56.55
2019-05-15T16:43:05.245Z,57.38
2019-05-15T16:48:09.423Z,57.45
2019-05-15T16:53:12.873Z,57.45
2019-05-15T16:58:19.103Z,57.72
2019-05-15T17:03:22.221Z,57.93
2019-05-15T17:08:25.506Z,57.96
2019-05-15T17:13:29.040Z,58.14
2019-05-15T17:18:32.331Z,58.83
2019-05-15T17:23:35.625Z,59.01
2019-05-15T17:28:38.921Z,59.26
2019-05-15T17:33:42.247Z,59.70
2019-05-15T17:38:45.604Z,60.66
2019-05-15T17:43:48.895Z,61.27
2019-05-15T17:48:55.697Z,61.58
2019-05-15T17:53:58.290Z,61.67
2019-05-15T17:59:01.546Z,61.60
2019-05-15T18:04:04.852Z,62.16
2019-05-15T18:09:08.679Z,62.21
2019-05-15T18:14:12.118Z,62.23
2019-05-15T18:19:15.595Z,62.27
2019-05-15T18:24:18.884Z,62.55
2019-05-15T18:29:22.187Z,62.93
2019-05-15T18:34:25.463Z,63.06
2019-05-15T18:39:28.756Z,63.49
2019-05-15T18:44:33.021Z,63.97
2019-05-15T18:49:38.037Z,64.30
2019-05-15T18:54:41.313Z,64.85
2019-05-15T18:59:44.773Z,65.00
2019-05-15T19:04:49.025Z,65.48
2019-05-15T19:09:52.489Z,66.06
2019-05-15T19:14:58.451Z,66.25
2019-05-15T19:20:00.787Z,66.81
2019-05-15T19:25:05.825Z,67.13
2019-05-15T19:30:10.162Z,67.62
2019-05-15T19:35:13.720Z,67.92
2019-05-15T19:40:18.752Z,68.40
2019-05-15T19:45:22.143Z,69.09
2019-05-15T19:50:25.428Z,69.12
2019-05-15T19:55:28.818Z,68.71
2019-05-15T20:00:32.103Z,68.94
2019-05-15T20:05:38.102Z,69.07
2019-05-15T20:10:41.314Z,69.04
2019-05-15T20:15:44.605Z,68.71
2019-05-15T20:20:48.049Z,69.01
2019-05-15T20:25:51.334Z,69.55
2019-05-15T20:30:54.617Z,69.50
2019-05-15T20:35:59.065Z,69.14
2019-05-15T20:41:02.309Z,69.78
2019-05-15T20:46:05.585Z,69.73
2019-05-15T20:51:08.879Z,70.23
2019-05-15T20:56:12.177Z,70.57
2019-05-15T21:01:18.072Z,71.00
2019-05-15T21:06:20.752Z,70.05
2019-05-15T21:11:24.055Z,71.59
2019-05-15T21:16:27.938Z,72.08
2019-05-15T21:21:31.319Z,72.53
2019-05-15T21:26:34.613Z,72.79
2019-05-15T21:31:39.921Z,73.14
2019-05-15T21:36:43.107Z,73.22
2019-05-15T21:41:48.722Z,74.20
2019-05-15T21:46:51.431Z,73.89
2019-05-15T21:51:54.737Z,74.25
2019-05-15T21:57:12.887Z,74.05
2019-05-15T22:02:03.187Z,74.20
2019-05-15T22:07:09.048Z,74.27
2019-05-15T22:12:11.911Z,74.69
2019-05-15T22:17:15.193Z,75.16
2019-05-15T22:22:18.476Z,75.30
2019-05-15T22:27:21.770Z,75.17
2019-05-15T22:32:25.064Z,75.12
2019-05-15T22:37:29.456Z,75.37
2019-05-15T22:42:32.754Z,75.52
2019-05-15T22:47:36.871Z,75.89
2019-05-15T22:52:41.076Z,75.71
2019-05-15T22:57:44.528Z,76.21
2019-05-15T23:02:48.900Z,76.38
2019-05-15T23:07:52.283Z,76.79
2019-05-15T23:12:57.687Z,76.32
2019-05-15T23:18:00.599Z,76.74
2019-05-15T23:23:03.969Z,76.72
2019-05-15T23:28:08.583Z,76.41
2019-05-15T23:33:11.868Z,76.75
2019-05-15T23:38:15.153Z,76.24
2019-05-15T23:43:19.053Z,76.48
2019-05-15T23:48:22.386Z,76.56
2019-05-15T23:53:25.743Z,76.72
2019-05-15T23:58:29.444Z,76.66
